Time;durP1;ratioP1;P1;durP2;ratioP2;P2;SDS_P1;SDS_P2;PMS_P1;PMS_P2;Temp;Humidity;BMP_temperature;BMP_pressure;BME280_temperature;BME280_humidity;BME280_pressure;Samples;Min_cycle;Max_cycle;Signal;HPM_P1;HPM_P2
2023/07/13 00:01:46;;;;;;;14.05;10.98;;;;;;;25.08;97.55;100468.81;5029962;28;20063;-68
2023/07/13 00:04:12;;;;;;;14.73;11.63;;;;;;;24.94;97.64;100459.41;5029473;28;20029;-68
2023/07/13 00:06:37;;;;;;;14.30;11.73;;;;;;;24.89;98.27;100474.50;5023975;28;20037;-68
2023/07/13 00:09:03;;;;;;;16.88;11.27;;;;;;;24.75;97.99;100432.56;5030057;28;20024;-66
2023/07/13 00:11:28;;;;;;;18.42;12.10;;;;;;;24.99;97.75;100470.75;5029682;28;20031;-68
2023/07/13 00:13:54;;;;;;;15.07;11.48;;;;;;;24.94;98.07;100467.34;5029941;28;20112;-68
2023/07/13 00:16:19;;;;;;;16.60;11.85;;;;;;;24.89;98.14;100456.03;5030242;28;20511;-68
2023/07/13 00:18:45;;;;;;;15.20;11.57;;;;;;;24.97;97.58;100462.00;5030233;28;20025;-65
2023/07/13 00:21:12;;;;;;;14.40;11.77;;;;;;;24.93;97.90;100451.53;5028892;28;20026;-69
2023/07/13 00:23:40;;;;;;;13.27;11.88;;;;;;;24.70;97.98;100416.81;5029561;28;20488;-70
2023/07/13 00:26:08;;;;;;;14.98;11.18;;;;;;;24.79;98.69;100471.19;5028254;28;20022;-69
2023/07/13 00:28:34;;;;;;;13.02;11.38;;;;;;;24.74;98.52;100461.66;5029906;28;20032;-69
2023/07/13 00:31:01;;;;;;;15.63;12.00;;;;;;;24.74;98.38;100453.75;5029744;28;20072;-69
2023/07/13 00:33:28;;;;;;;14.85;11.15;;;;;;;24.85;98.07;100454.38;5029831;28;20097;-68
2023/07/13 00:35:55;;;;;;;14.35;11.27;;;;;;;24.75;98.62;100456.34;5028916;28;20063;-69
2023/07/13 00:38:22;;;;;;;15.60;11.20;;;;;;;24.48;98.81;100419.03;5029470;28;20033;-67
2023/07/13 00:40:47;;;;;;;17.08;11.45;;;;;;;24.34;98.76;100395.59;5029543;28;20037;-68
2023/07/13 00:43:16;;;;;;;15.10;11.98;;;;;;;24.55;99.11;100448.81;5029597;28;20506;-68
2023/07/13 00:45:41;;;;;;;12.57;11.27;;;;;;;24.28;99.45;100410.69;5030006;28;20104;-66
2023/07/13 00:48:07;;;;;;;13.23;11.15;;;;;;;24.49;98.71;100435.75;5029023;28;20113;-68
2023/07/13 00:50:32;;;;;;;13.82;11.68;;;;;;;24.59;98.17;100434.66;5048276;28;20033;-68
2023/07/13 00:52:58;;;;;;;15.32;11.75;;;;;;;24.82;97.66;100442.09;5049724;28;20029;-68
2023/07/13 00:55:23;;;;;;;14.93;11.18;;;;;;;24.77;97.37;100433.38;5049427;28;20422;-65
2023/07/13 00:57:49;;;;;;;15.82;10.90;;;;;;;24.63;97.48;100424.91;5049145;28;20123;-69
2023/07/13 01:00:16;;;;;;;12.25;10.32;;;;;;;24.63;97.87;100436.31;5049282;28;20418;-68
2023/07/13 01:02:46;;;;;;;13.23;11.02;;;;;;;24.69;97.55;100433.56;5049180;28;20035;-67
2023/07/13 01:05:13;;;;;;;15.65;10.77;;;;;;;24.39;97.95;100413.97;5049541;28;20112;-70
2023/07/13 01:07:41;;;;;;;14.00;10.48;;;;;;;24.32;98.03;100410.56;5049102;28;20079;-68
2023/07/13 01:10:07;;;;;;;17.80;10.50;;;;;;;24.37;98.63;100435.13;5053213;28;20033;-68
2023/07/13 01:12:34;;;;;;;11.73;10.05;;;;;;;24.34;98.56;100429.88;5053269;28;20092;-68
2023/07/13 01:15:01;;;;;;;12.95;9.85;;;;;;;24.46;98.22;100430.53;5052310;28;20028;-68
2023/07/13 01:17:28;;;;;;;14.20;10.35;;;;;;;24.53;98.19;100434.78;5052424;28;20033;-69
2023/07/13 01:19:54;;;;;;;18.08;9.90;;;;;;;24.51;97.73;100433.94;5051809;28;20020;-67
2023/07/13 01:22:25;;;;;;;13.90;10.35;;;;;;;24.50;98.02;100437.47;5052338;28;20437;-68
2023/07/13 01:24:51;;;;;;;12.25;10.68;;;;;;;24.36;97.99;100409.63;5053036;28;20036;-68
2023/07/13 01:27:21;;;;;;;13.73;10.18;;;;;;;24.44;98.29;100437.63;5052302;28;20406;-68
2023/07/13 01:29:47;;;;;;;11.50;9.52;;;;;;;24.26;98.63;100415.97;5052823;28;20057;-70
2023/07/13 01:32:25;;;;;;;10.93;9.82;;;;;;;24.22;99.07;100428.38;5051094;28;20063;-67
2023/07/13 01:34:54;;;;;;;11.50;10.30;;;;;;;24.19;99.59;100419.66;5052428;28;20028;-68
2023/07/13 01:37:20;;;;;;;13.77;9.95;;;;;;;24.14;99.58;100421.50;5052447;28;20017;-68
2023/07/13 01:39:46;;;;;;;14.27;9.70;;;;;;;23.89;100.00;100421.97;5052856;28;20516;-68
2023/07/13 01:42:12;;;;;;;15.68;10.25;;;;;;;23.63;100.00;100407.50;5052217;28;20143;-67
2023/07/13 01:44:38;;;;;;;11.13;9.52;;;;;;;23.60;100.00;100389.09;5052288;28;20130;-70
2023/07/13 01:47:03;;;;;;;16.05;10.55;;;;;;;23.62;100.00;100412.81;5051814;28;20491;-70
2023/07/13 01:49:29;;;;;;;12.13;9.73;;;;;;;23.70;100.00;100403.88;5052309;28;20111;-70
2023/07/13 01:51:54;;;;;;;11.48;9.68;;;;;;;23.80;100.00;100420.38;5052200;28;20078;-67
2023/07/13 01:54:20;;;;;;;13.23;9.90;;;;;;;23.67;100.00;100388.09;5050814;28;20067;-70
2023/07/13 01:56:45;;;;;;;11.63;9.45;;;;;;;23.75;100.00;100422.22;5052105;28;20024;-66
2023/07/13 01:59:11;;;;;;;12.43;10.32;;;;;;;23.80;100.00;100432.66;5049968;28;20053;-69
2023/07/13 02:01:36;;;;;;;14.50;10.63;;;;;;;23.87;100.00;100426.41;5052369;28;20033;-70
2023/07/13 02:04:02;;;;;;;11.68;10.32;;;;;;;23.73;100.00;100424.03;5051972;28;20017;-69
2023/07/13 02:06:28;;;;;;;13.25;10.30;;;;;;;23.47;100.00;100432.38;5052152;28;20090;-69
2023/07/13 02:08:53;;;;;;;12.57;10.00;;;;;;;23.34;100.00;100402.72;5052066;28;20476;-69
2023/07/13 02:11:19;;;;;;;15.90;10.80;;;;;;;23.36;100.00;100437.84;5051752;28;20013;-70
2023/07/13 02:13:44;;;;;;;16.23;10.32;;;;;;;23.38;100.00;100436.91;5051173;28;20033;-69
2023/07/13 02:16:09;;;;;;;12.27;9.85;;;;;;;23.37;100.00;100436.94;5051290;28;20048;-68
2023/07/13 02:18:35;;;;;;;11.60;9.80;;;;;;;23.30;100.00;100440.56;5051666;28;20036;-68
2023/07/13 02:21:00;;;;;;;13.13;9.75;;;;;;;23.39;100.00;100443.91;5050118;28;20430;-69
2023/07/13 02:23:26;;;;;;;12.60;10.07;;;;;;;23.43;100.00;100442.97;5051655;28;20118;-68
2023/07/13 02:25:56;;;;;;;11.88;10.50;;;;;;;23.44;100.00;100441.22;5051439;28;20028;-68
2023/07/13 02:28:21;;;;;;;15.23;10.23;;;;;;;23.34;100.00;100443.13;5051495;28;20036;-69
2023/07/13 02:30:46;;;;;;;14.80;9.82;;;;;;;23.43;100.00;100456.13;5049112;28;20033;-66
2023/07/13 02:33:12;;;;;;;13.13;9.90;;;;;;;23.28;100.00;100451.13;5039784;28;20028;-66
2023/07/13 02:35:38;;;;;;;15.25;10.68;;;;;;;23.28;100.00;100443.22;5051583;28;20043;-69
2023/07/13 02:38:03;;;;;;;12.85;10.65;;;;;;;23.05;100.00;100415.47;5051320;28;20487;-67
2023/07/13 02:40:29;;;;;;;14.13;10.57;;;;;;;23.25;100.00;100456.44;5051049;28;20023;-65
2023/07/13 02:42:54;;;;;;;19.60;11.50;;;;;;;23.24;100.00;100452.94;5050688;28;20372;-69
2023/07/13 02:45:20;;;;;;;15.10;10.85;;;;;;;23.24;100.00;100445.03;5038106;28;20017;-65
2023/07/13 02:47:45;;;;;;;13.52;10.85;;;;;;;23.07;100.00;100397.88;5050110;28;20499;-69
2023/07/13 02:50:11;;;;;;;15.43;11.13;;;;;;;23.41;100.00;100447.41;5050757;28;20031;-69
2023/07/13 02:52:36;;;;;;;15.75;10.75;;;;;;;23.50;100.00;100453.41;5051234;28;20043;-70
2023/07/13 02:55:02;;;;;;;17.60;10.55;;;;;;;23.57;100.00;100453.25;5050521;28;20380;-70
2023/07/13 02:57:28;;;;;;;16.30;11.32;;;;;;;23.68;100.00;100460.13;5051032;28;20036;-69
2023/07/13 02:59:54;;;;;;;18.33;10.95;;;;;;;23.79;100.00;100457.28;5050921;28;20443;-66
2023/07/13 03:02:20;;;;;;;18.45;10.07;;;;;;;23.86;98.82;100458.94;5050898;28;20108;-66
2023/07/13 03:04:45;;;;;;;14.68;10.15;;;;;;;24.11;97.25;100463.78;5051066;28;20155;-66
2023/07/13 03:07:11;;;;;;;18.10;10.18;;;;;;;24.13;95.35;100448.81;5050816;28;20052;-65
2023/07/13 03:09:37;;;;;;;14.65;9.98;;;;;;;24.22;95.11;100457.41;5050641;28;20033;-69
2023/07/13 03:12:03;;;;;;;15.48;10.70;;;;;;;24.30;93.64;100448.44;5050501;28;20032;-69
2023/07/13 03:14:28;;;;;;;15.25;11.30;;;;;;;24.29;94.03;100446.69;5050328;28;20041;-66
2023/07/13 03:16:54;;;;;;;19.02;11.70;;;;;;;24.23;94.45;100437.16;5050465;28;20029;-69
2023/07/13 03:19:20;;;;;;;13.10;10.45;;;;;;;24.33;94.03;100465.09;5050029;28;20487;-66
2023/07/13 03:21:45;;;;;;;14.57;10.27;;;;;;;24.19;94.10;100438.13;5050928;28;20032;-69
2023/07/13 03:24:11;;;;;;;16.42;11.13;;;;;;;24.44;93.71;100467.50;5050045;28;20033;-67
2023/07/13 03:26:37;;;;;;;15.25;11.65;;;;;;;24.59;93.13;100468.09;5050344;28;20395;-68
2023/07/13 03:29:02;;;;;;;19.40;11.60;;;;;;;24.61;93.06;100466.28;5050563;28;20110;-70
2023/07/13 03:31:30;;;;;;;14.43;11.98;;;;;;;24.50;93.24;100453.31;5050365;28;20060;-69
2023/07/13 03:33:57;;;;;;;17.30;11.90;;;;;;;24.48;93.08;100457.75;5049671;28;20032;-69
2023/07/13 03:36:25;;;;;;;16.58;13.13;;;;;;;24.49;93.50;100467.44;5049937;28;20055;-69
2023/07/13 03:38:55;;;;;;;17.40;12.90;;;;;;;24.62;92.89;100471.53;5049732;28;20037;-69
2023/07/13 03:41:22;;;;;;;17.98;13.55;;;;;;;24.66;93.02;100473.25;5050065;28;20025;-66
2023/07/13 03:43:48;;;;;;;17.48;13.23;;;;;;;24.49;93.15;100447.16;5050272;28;20033;-69
2023/07/13 03:46:15;;;;;;;17.13;13.65;;;;;;;24.69;93.15;100472.31;5049716;28;20048;-69
2023/07/13 03:48:43;;;;;;;19.85;13.40;;;;;;;24.64;93.50;100472.38;5049894;28;20021;-71
2023/07/13 03:51:09;;;;;;;17.08;12.85;;;;;;;24.55;94.35;100476.06;5050172;28;20467;-67
2023/07/13 03:53:39;;;;;;;26.02;13.20;;;;;;;24.51;95.14;100476.16;5049635;28;20025;-68
2023/07/13 03:56:05;;;;;;;17.83;12.55;;;;;;;24.51;94.98;100478.78;5049856;28;20037;-72
2023/07/13 03:58:32;;;;;;;17.25;12.00;;;;;;;24.47;94.99;100480.63;5049950;28;20476;-70
2023/07/13 04:00:57;;;;;;;17.48;12.57;;;;;;;24.14;95.48;100435.56;5050430;28;20059;-72
2023/07/13 04:03:24;;;;;;;22.88;13.18;;;;;;;24.28;96.55;100466.09;5048372;28;20017;-66
2023/07/13 04:05:50;;;;;;;16.85;12.90;;;;;;;24.37;96.54;100482.63;5050142;28;20059;-69
2023/07/13 04:08:16;;;;;;;17.20;13.25;;;;;;;24.46;96.38;100480.66;5049294;28;20523;-69
2023/07/13 04:10:41;;;;;;;15.57;12.15;;;;;;;24.33;95.84;100454.53;5048381;28;20040;-66
2023/07/13 04:13:07;;;;;;;19.17;13.25;;;;;;;24.53;96.32;100477.00;5041649;28;20605;-68
2023/07/13 04:15:32;;;;;;;16.80;13.43;;;;;;;24.32;97.41;100483.59;5030987;28;20029;-69
2023/07/13 04:17:58;;;;;;;16.30;13.35;;;;;;;24.10;98.36;100493.69;5033484;28;20039;-68
2023/07/13 04:20:27;;;;;;;25.75;16.65;;;;;;;23.94;99.17;100493.97;5050464;28;20104;-69
2023/07/13 04:22:55;;;;;;;20.55;14.85;;;;;;;23.97;98.67;100493.91;5049958;28;20036;-68
2023/07/13 04:25:21;;;;;;;19.13;13.45;;;;;;;23.88;98.73;100489.63;5050347;28;20036;-69
2023/07/13 04:27:47;;;;;;;21.55;14.38;;;;;;;23.98;99.07;100492.16;5049977;28;20108;-66
2023/07/13 04:30:13;;;;;;;16.35;13.40;;;;;;;23.99;98.79;100492.13;5050108;28;20047;-69
2023/07/13 04:32:38;;;;;;;17.17;13.80;;;;;;;24.04;99.48;100487.63;5050110;28;20157;-67
2023/07/13 04:35:04;;;;;;;21.13;13.68;;;;;;;24.05;99.86;100488.47;5050223;28;20499;-68
2023/07/13 04:37:50;;;;;;;15.65;13.35;;;;;;;23.95;100.00;100485.16;5049867;28;20048;-65
2023/07/13 04:40:18;;;;;;;21.90;15.82;;;;;;;23.85;100.00;100489.72;5014102;28;20043;-69
2023/07/13 04:42:47;;;;;;;22.20;14.93;;;;;;;23.93;100.00;100491.38;5047566;28;20195;-64
2023/07/13 04:45:14;;;;;;;17.92;14.77;;;;;;;24.02;100.00;100496.47;5051744;28;20060;-68
2023/07/13 04:47:40;;;;;;;19.35;15.77;;;;;;;24.14;100.00;100503.25;5051595;28;20867;-65
2023/07/13 04:50:07;;;;;;;17.67;15.85;;;;;;;24.18;100.00;100502.31;5051434;28;20047;-68
2023/07/13 04:52:32;;;;;;;18.58;16.40;;;;;;;24.29;100.00;100510.00;5051670;28;20028;-69
2023/07/13 04:54:59;;;;;;;19.40;16.38;;;;;;;24.36;100.00;100507.25;5051169;28;20041;-68
2023/07/13 04:57:25;;;;;;;21.08;16.17;;;;;;;24.43;100.00;100515.91;5051301;28;20045;-68
2023/07/13 04:59:50;;;;;;;23.75;17.08;;;;;;;24.49;99.16;100507.00;5051303;28;20538;-65
2023/07/13 05:02:16;;;;;;;20.42;16.73;;;;;;;24.43;98.74;100502.72;5051434;28;20764;-65
2023/07/13 05:04:41;;;;;;;20.75;16.88;;;;;;;24.45;98.88;100500.03;5051140;28;20488;-67
2023/07/13 05:07:07;;;;;;;22.83;17.20;;;;;;;24.34;99.41;100498.50;5051393;28;20033;-68
2023/07/13 05:09:32;;;;;;;19.38;15.80;;;;;;;24.26;100.00;100503.03;5051007;28;20021;-67
2023/07/13 05:11:58;;;;;;;21.08;17.08;;;;;;;24.27;99.75;100503.91;5052879;28;20037;-68
2023/07/13 05:14:23;;;;;;;21.05;16.30;;;;;;;24.33;99.87;100506.44;5053360;28;20480;-65
2023/07/13 05:16:48;;;;;;;20.88;16.10;;;;;;;24.41;100.00;100501.88;5053360;28;20115;-65
2023/07/13 05:19:14;;;;;;;21.75;17.83;;;;;;;24.42;99.35;100500.97;5053240;28;20475;-67
2023/07/13 05:21:41;;;;;;;24.60;16.40;;;;;;;24.59;99.63;100511.19;5053496;28;20582;-65
2023/07/13 05:24:06;;;;;;;23.25;17.38;;;;;;;24.58;98.55;100506.81;5053403;28;20037;-67
2023/07/13 05:26:32;;;;;;;20.67;16.92;;;;;;;24.73;98.32;100512.72;5053408;28;20028;-67
2023/07/13 05:28:57;;;;;;;21.25;17.40;;;;;;;24.73;97.80;100507.44;5053221;28;20029;-69
2023/07/13 05:31:22;;;;;;;20.00;17.13;;;;;;;24.69;98.35;100498.72;5053237;28;20021;-67
2023/07/13 05:33:48;;;;;;;25.02;16.88;;;;;;;24.85;98.02;100515.94;5051712;28;20036;-68
2023/07/13 05:36:13;;;;;;;18.98;16.08;;;;;;;24.97;97.29;100517.47;5053301;28;20025;-69
2023/07/13 05:38:39;;;;;;;17.00;14.90;;;;;;;24.99;95.96;100515.63;5053092;28;20090;-66
2023/07/13 05:41:06;;;;;;;17.80;15.90;;;;;;;25.06;96.34;100519.03;5053292;28;20079;-68
2023/07/13 05:43:32;;;;;;;20.30;16.02;;;;;;;25.20;95.57;100518.72;5053188;28;20040;-65
2023/07/13 05:45:58;;;;;;;20.30;15.40;;;;;;;25.06;96.03;100491.72;5052789;28;20029;-67
2023/07/13 05:48:24;;;;;;;20.20;15.55;;;;;;;25.32;94.55;100521.06;5052579;28;20063;-68
2023/07/13 05:50:49;;;;;;;17.63;14.73;;;;;;;25.35;93.17;100515.69;5046170;28;20025;-66
2023/07/13 05:53:15;;;;;;;17.05;14.13;;;;;;;25.47;92.23;100524.28;5032650;28;20033;-66
2023/07/13 05:55:47;;;;;;;26.25;15.57;;;;;;;25.65;91.26;100528.25;5032761;28;20369;-67
2023/07/13 05:58:13;;;;;;;21.05;17.13;;;;;;;25.61;92.10;100524.81;5032950;28;20052;-64
2023/07/13 06:00:39;;;;;;;19.30;17.20;;;;;;;25.62;91.84;100523.03;5033094;28;20115;-64
2023/07/13 06:03:06;;;;;;;18.77;15.90;;;;;;;25.80;92.90;100521.72;5031273;28;20022;-68
2023/07/13 06:05:33;;;;;;;18.70;16.58;;;;;;;25.70;92.31;100486.69;5032969;28;20029;-65
2023/07/13 06:07:59;;;;;;;20.42;16.42;;;;;;;25.93;92.66;100486.09;5033129;28;20060;-69
2023/07/13 06:10:24;;;;;;;19.30;16.80;;;;;;;26.05;89.98;100495.47;5031722;28;20480;-68
2023/07/13 06:12:50;;;;;;;20.65;15.88;;;;;;;26.20;91.52;100514.53;5032577;28;20108;-71
2023/07/13 06:15:15;;;;;;;21.50;16.35;;;;;;;26.17;91.10;100510.19;5032142;28;20029;-66
2023/07/13 06:17:41;;;;;;;19.23;17.17;;;;;;;26.25;90.20;100502.03;5040715;28;20037;-66
2023/07/13 06:20:07;;;;;;;19.35;17.20;;;;;;;26.15;90.12;100504.06;5052374;28;20033;-68
2023/07/13 06:22:32;;;;;;;20.17;17.10;;;;;;;26.27;91.16;100508.13;5053719;28;20422;-65
2023/07/13 06:24:58;;;;;;;19.90;17.80;;;;;;;26.26;91.34;100499.34;5052224;28;20017;-65
2023/07/13 06:27:23;;;;;;;20.50;18.40;;;;;;;26.48;88.51;100514.59;5052410;28;20108;-66
2023/07/13 06:29:49;;;;;;;23.05;19.48;;;;;;;26.59;88.46;100515.19;5051873;28;20025;-65
2023/07/13 06:32:14;;;;;;;21.80;18.63;;;;;;;26.70;88.40;100506.06;5016558;28;20052;-66
2023/07/13 06:34:40;;;;;;;23.38;20.10;;;;;;;26.78;86.12;100507.59;5052391;28;20119;-69
2023/07/13 06:37:06;;;;;;;34.35;20.17;;;;;;;26.85;85.93;100502.13;5052182;28;20039;-68
2023/07/13 06:39:32;;;;;;;27.38;19.33;;;;;;;27.02;85.68;100509.56;5050726;28;20032;-66
2023/07/13 06:41:57;;;;;;;22.23;19.85;;;;;;;27.09;85.85;100501.38;5050710;28;20402;-65
2023/07/13 06:44:22;;;;;;;25.30;20.58;;;;;;;27.15;83.94;100502.94;5051833;28;20029;-70
2023/07/13 06:46:48;;;;;;;31.15;21.33;;;;;;;27.27;82.47;100499.03;5051559;28;20021;-68
2023/07/13 06:49:13;;;;;;;30.33;22.27;;;;;;;27.42;83.29;100492.41;5051701;28;20029;-69
2023/07/13 06:51:38;;;;;;;26.95;21.92;;;;;;;27.58;84.67;100492.78;5067302;28;20076;-67
2023/07/13 06:54:04;;;;;;;31.58;23.08;;;;;;;27.48;83.75;100465.69;5051825;28;20462;-66
2023/07/13 06:56:29;;;;;;;26.33;22.23;;;;;;;27.80;83.14;100497.34;5051488;28;20029;-66
2023/07/13 06:58:55;;;;;;;32.67;22.98;;;;;;;27.81;81.88;100478.72;5051492;28;20047;-69
2023/07/13 07:01:20;;;;;;;28.13;21.20;;;;;;;27.91;82.02;100490.75;5051368;28;20414;-66
2023/07/13 07:03:47;;;;;;;27.40;22.50;;;;;;;27.98;79.97;100478.13;5051284;28;20467;-65
2023/07/13 07:06:12;;;;;;;27.33;22.70;;;;;;;28.09;84.14;100491.91;5050931;28;20106;-66
2023/07/13 07:08:38;;;;;;;24.55;21.88;;;;;;;27.96;78.76;100487.06;5051493;28;20045;-68
2023/07/13 07:11:03;;;;;;;28.83;21.80;;;;;;;28.03;78.17;100489.44;5051682;28;20533;-68
2023/07/13 07:13:30;;;;;;;24.17;21.65;;;;;;;28.17;81.11;100480.16;5049067;28;20045;-68
2023/07/13 07:15:55;;;;;;;25.95;22.30;;;;;;;28.27;80.45;100491.31;5042772;28;20044;-69
2023/07/13 07:18:21;;;;;;;25.63;22.75;;;;;;;28.35;79.35;100481.25;5030944;28;20029;-68
2023/07/13 07:20:46;;;;;;;26.85;22.17;;;;;;;28.40;79.76;100476.66;5030360;28;20022;-69
2023/07/13 07:23:12;;;;;;;29.73;21.85;;;;;;;28.61;77.62;100485.56;5031116;28;20108;-68
2023/07/13 07:25:41;;;;;;;26.02;21.17;;;;;;;28.52;77.57;100459.38;5031107;28;20446;-68
2023/07/13 07:28:08;;;;;;;24.98;21.38;;;;;;;28.78;77.54;100478.81;5030348;28;20034;-70
2023/07/13 07:30:33;;;;;;;25.10;20.98;;;;;;;28.93;79.13;100485.31;5029903;28;20526;-68
2023/07/13 07:32:58;;;;;;;26.55;21.83;;;;;;;28.97;76.90;100452.34;5029874;28;20029;-64
2023/07/13 07:35:24;;;;;;;23.35;20.80;;;;;;;29.03;77.97;100449.47;5030210;28;20025;-68
2023/07/13 07:37:50;;;;;;;24.98;19.55;;;;;;;29.19;77.40;100449.69;5029631;28;20082;-67
2023/07/13 07:40:15;;;;;;;28.20;20.75;;;;;;;29.43;77.62;100465.59;5029860;28;20025;-70
2023/07/13 07:42:41;;;;;;;22.92;20.52;;;;;;;29.52;79.53;100467.84;5026931;28;20068;-67
2023/07/13 07:45:06;;;;;;;26.63;20.35;;;;;;;29.68;75.51;100473.38;5030117;28;20044;-69
2023/07/13 07:47:32;;;;;;;21.85;19.50;;;;;;;29.81;75.60;100458.63;5030827;28;20022;-69
2023/07/13 07:49:57;;;;;;;22.20;19.38;;;;;;;29.85;78.08;100468.19;5028304;28;20484;-66
2023/07/13 07:52:23;;;;;;;29.13;20.27;;;;;;;30.00;72.89;100476.50;5031020;28;20103;-66
2023/07/13 07:54:48;;;;;;;24.58;20.08;;;;;;;30.12;73.21;100473.28;5030518;28;20025;-66
2023/07/13 07:57:14;;;;;;;25.95;19.85;;;;;;;30.16;75.48;100474.88;5030365;28;20045;-66
2023/07/13 07:59:39;;;;;;;28.30;21.08;;;;;;;30.14;76.77;100471.41;5030510;28;20056;-69
2023/07/13 08:02:05;;;;;;;24.38;18.58;;;;;;;30.06;71.74;100478.00;5030422;28;20033;-68
2023/07/13 08:04:30;;;;;;;27.08;19.60;;;;;;;30.01;73.25;100465.75;5030735;28;20115;-66
2023/07/13 08:06:57;;;;;;;23.55;19.10;;;;;;;30.09;72.38;100465.41;5030565;28;20033;-68
2023/07/13 08:09:22;;;;;;;21.02;18.65;;;;;;;30.04;71.99;100438.16;5030290;28;20783;-68
2023/07/13 08:11:48;;;;;;;22.77;20.00;;;;;;;30.37;73.42;100465.97;5030107;28;20033;-68
2023/07/13 08:14:14;;;;;;;22.08;18.48;;;;;;;30.40;70.81;100465.84;5023928;28;20033;-69
2023/07/13 08:16:40;;;;;;;24.60;19.02;;;;;;;30.45;71.84;100463.81;5028716;28;20031;-67
2023/07/13 08:19:06;;;;;;;24.10;17.83;;;;;;;30.56;70.50;100458.03;5042141;28;20083;-68
2023/07/13 08:21:32;;;;;;;20.17;18.13;;;;;;;30.62;70.39;100450.59;5031283;28;20029;-67
2023/07/13 08:23:57;;;;;;;22.30;17.17;;;;;;;30.70;70.37;100454.72;5030702;28;20554;-68
2023/07/13 08:26:23;;;;;;;21.38;17.60;;;;;;;30.79;70.40;100449.81;5030181;28;20029;-67
2023/07/13 08:28:48;;;;;;;18.48;16.67;;;;;;;30.84;69.37;100441.56;5029665;28;20407;-65
2023/07/13 08:31:15;;;;;;;18.50;16.33;;;;;;;31.01;68.47;100446.09;5030408;28;20064;-68
2023/07/13 08:33:40;;;;;;;21.27;16.55;;;;;;;31.11;69.50;100447.38;5027989;28;20128;-64
2023/07/13 08:36:06;;;;;;;18.27;15.30;;;;;;;31.16;67.44;100435.66;5029968;28;20116;-66
2023/07/13 08:38:32;;;;;;;18.02;16.08;;;;;;;31.03;67.91;100422.00;5029994;28;20052;-66
2023/07/13 08:40:58;;;;;;;26.20;16.42;;;;;;;31.16;69.08;100449.00;5030167;28;20029;-67
2023/07/13 08:43:34;;;;;;;21.60;15.60;;;;;;;31.20;67.71;100429.22;5029622;28;20080;-66
2023/07/13 08:46:08;;;;;;;17.27;14.70;;;;;;;31.37;66.78;100439.91;5029991;28;20025;-68
2023/07/13 08:48:49;;;;;;;17.25;15.10;;;;;;;31.38;65.69;100422.06;5030253;28;20119;-67
2023/07/13 08:51:31;;;;;;;20.98;15.32;;;;;;;31.65;66.61;100451.84;5029875;28;20119;-69
2023/07/13 08:54:01;;;;;;;16.17;12.20;;;;;;;31.76;60.90;100438.78;5030052;28;20072;-68
2023/07/13 08:56:29;;;;;;;13.70;12.25;;;;;;;31.94;63.65;100430.78;5030073;28;20112;-68
2023/07/13 08:59:03;;;;;;;17.42;12.27;;;;;;;32.10;60.20;100442.38;5029708;28;20034;-68
2023/07/13 09:01:52;;;;;;;17.67;12.35;;;;;;;32.17;60.74;100436.69;5029624;28;20104;-65
2023/07/13 09:04:23;;;;;;;15.70;12.10;;;;;;;32.29;59.89;100443.19;5028218;28;20034;-68
2023/07/13 09:07:04;;;;;;;11.88;10.65;;;;;;;32.45;57.93;100449.44;5029864;28;20057;-68
2023/07/13 09:09:35;;;;;;;18.70;12.63;;;;;;;32.61;56.16;100452.09;5029677;28;20035;-66
2023/07/13 09:12:01;;;;;;;13.63;11.15;;;;;;;32.82;59.97;100449.22;5029895;28;20385;-69
2023/07/13 09:14:39;;;;;;;16.23;10.98;;;;;;;32.87;58.61;100447.97;5029637;28;20026;-67
2023/07/13 09:17:16;;;;;;;14.07;11.50;;;;;;;32.94;55.05;100439.59;5028391;28;20626;-67
2023/07/13 09:19:43;;;;;;;16.33;12.20;;;;;;;32.98;54.79;100425.97;5025882;28;20415;-65
2023/07/13 09:22:17;;;;;;;17.83;11.40;;;;;;;33.14;55.16;100419.75;5029157;28;20037;-66
2023/07/13 09:24:55;;;;;;;14.15;11.95;;;;;;;33.28;58.39;100413.59;5027400;28;20029;-65
2023/07/13 09:27:31;;;;;;;18.02;11.43;;;;;;;33.43;54.57;100420.72;5028631;28;20557;-67
2023/07/13 09:30:25;;;;;;;15.32;10.93;;;;;;;33.58;51.04;100420.75;5028775;28;20030;-69
2023/07/13 09:32:53;;;;;;;13.52;11.60;;;;;;;33.76;51.83;100408.06;5046520;28;20541;-65
2023/07/13 09:35:27;;;;;;;14.98;11.30;;;;;;;33.91;50.54;100417.88;5032692;28;20030;-68
2023/07/13 09:37:58;;;;;;;14.60;10.77;;;;;;;33.86;50.84;100406.59;5033198;28;20033;-68
2023/07/13 09:40:54;;;;;;;17.30;11.27;;;;;;;34.02;51.69;100404.66;5033289;28;20040;-68
2023/07/13 09:43:20;;;;;;;12.85;11.20;;;;;;;34.16;52.00;100394.91;5030461;28;20048;-67
2023/07/13 09:45:47;;;;;;;16.50;11.45;;;;;;;34.32;49.47;100394.75;5028791;28;20068;-67
2023/07/13 09:48:14;;;;;;;12.57;11.23;;;;;;;34.42;48.78;100389.69;5029392;28;20454;-70
2023/07/13 09:50:41;;;;;;;15.07;11.13;;;;;;;34.55;49.23;100389.78;5030375;28;20143;-69
2023/07/13 09:53:12;;;;;;;10.43;9.43;;;;;;;34.61;54.45;100389.38;5030500;28;20049;-68
2023/07/13 09:55:40;;;;;;;11.80;9.90;;;;;;;34.48;49.65;100387.50;5029439;28;20497;-66
2023/07/13 09:58:22;;;;;;;12.23;9.88;;;;;;;34.59;47.88;100372.53;5029024;28;20026;-68
2023/07/13 10:00:56;;;;;;;12.73;9.85;;;;;;;34.70;49.16;100377.19;5028036;28;20049;-66
2023/07/13 10:03:26;;;;;;;12.32;9.30;;;;;;;34.62;51.78;100349.06;5029074;28;20033;-68
2023/07/13 10:05:53;;;;;;;11.65;9.43;;;;;;;34.89;45.66;100374.16;5029896;28;20080;-66
2023/07/13 10:08:30;;;;;;;10.43;8.07;;;;;;;35.02;45.47;100371.50;5029907;28;20049;-64
2023/07/13 10:11:33;;;;;;;12.23;8.50;;;;;;;35.09;44.70;100362.09;5028324;28;20030;-68
2023/07/13 10:14:02;;;;;;;10.75;7.63;;;;;;;35.08;41.79;100341.56;5027512;28;20046;-68
2023/07/13 10:16:33;;;;;;;9.98;8.25;;;;;;;35.41;42.80;100354.53;5022699;28;20044;-69
2023/07/13 10:19:02;;;;;;;11.95;8.73;;;;;;;35.17;41.20;100307.88;5020361;28;20040;-65
